createdAt,value
2022-12-13T01:07:45.648Z,24.35
2022-12-13T01:12:49.298Z,25.42
2022-12-13T01:17:53.249Z,25.37
2022-12-13T01:22:57.999Z,24.17
2022-12-13T01:28:01.408Z,22.60
2022-12-13T01:33:14.244Z,24.08
2022-12-13T01:38:19.897Z,25.50
2022-12-13T01:43:50.953Z,24.40
2022-12-13T01:49:02.221Z,23.95
2022-12-13T01:54:09.333Z,27.38
2022-12-13T01:59:14.528Z,29.42
2022-12-13T02:04:22.117Z,32.23
2022-12-13T02:09:27.593Z,31.58
2022-12-13T02:14:30.970Z,31.52
2022-12-13T02:20:07.072Z,44.03
2022-12-13T02:25:33.607Z,46.30
2022-12-13T02:30:42.851Z,68.38
2022-12-13T02:35:55.515Z,55.07
2022-12-13T02:41:06.245Z,63.60
2022-12-13T02:46:12.950Z,57.67
2022-12-13T02:51:18.550Z,53.13
2022-12-13T02:56:21.924Z,59.13
2022-12-13T03:01:49.828Z,59.53
2022-12-13T03:07:02.099Z,65.10
2022-12-13T03:12:38.794Z,53.93
2022-12-13T03:17:50.673Z,54.33
2022-12-13T03:22:54.305Z,56.65
2022-12-13T03:27:57.665Z,47.78
2022-12-13T03:33:06.348Z,39.83
2022-12-13T03:38:10.559Z,45.22
2022-12-13T03:43:13.968Z,44.63
2022-12-13T03:48:27.339Z,51.80
2022-12-13T03:53:33.187Z,47.55
2022-12-13T03:58:38.593Z,51.92
2022-12-13T04:03:45.637Z,53.63
2022-12-13T04:08:51.237Z,48.97
2022-12-13T04:13:55.327Z,38.63
2022-12-13T04:19:00.328Z,38.20
2022-12-13T04:24:04.886Z,39.43
2022-12-13T04:29:08.272Z,42.00
2022-12-13T04:34:13.009Z,33.42
2022-12-13T04:39:21.976Z,33.97
2022-12-13T04:44:27.316Z,34.43
2022-12-13T04:49:34.663Z,33.50
2022-12-13T04:54:38.146Z,31.90
2022-12-13T04:59:41.952Z,31.92
2022-12-13T05:04:48.239Z,28.67
2022-12-13T05:09:58.412Z,33.85
2022-12-13T05:15:01.714Z,34.20
2022-12-13T05:20:07.605Z,30.63
2022-12-13T05:25:12.986Z,31.50
2022-12-13T05:30:17.161Z,25.95
2022-12-13T05:35:22.948Z,26.42
2022-12-13T05:40:28.795Z,24.47
2022-12-13T05:45:32.797Z,27.58
2022-12-13T05:50:38.265Z,27.20
2022-12-13T05:55:42.141Z,25.30
2022-12-13T06:00:45.487Z,24.93
2022-12-13T06:05:50.136Z,27.20
2022-12-13T06:11:11.304Z,25.48
2022-12-13T06:16:22.856Z,27.58
2022-12-13T06:21:40.683Z,30.25
2022-12-13T06:26:49.602Z,27.60
2022-12-13T06:32:01.098Z,25.57
2022-12-13T06:37:09.110Z,28.73
2022-12-13T06:42:21.647Z,27.90
2022-12-13T06:47:31.995Z,25.35
2022-12-13T06:52:37.442Z,27.38
2022-12-13T06:57:41.244Z,27.27
2022-12-13T07:02:44.918Z,24.25
2022-12-13T07:07:49.920Z,24.50
2022-12-13T07:12:53.255Z,22.33
2022-12-13T07:17:56.614Z,26.52
2022-12-13T07:23:01.513Z,20.73
2022-12-13T07:28:07.579Z,19.65
2022-12-13T07:33:11.618Z,20.38
2022-12-13T07:38:16.265Z,23.60
2022-12-13T07:43:20.054Z,26.13
2022-12-13T07:48:23.525Z,24.33
2022-12-13T07:53:28.649Z,25.30
2022-12-13T07:58:36.894Z,24.03
2022-12-13T08:03:40.428Z,24.30
2022-12-13T08:08:45.090Z,24.80
2022-12-13T08:13:48.377Z,30.55
2022-12-13T08:18:51.685Z,28.20
2022-12-13T08:23:56.562Z,24.52
2022-12-13T08:28:59.913Z,40.95
2022-12-13T08:34:03.232Z,23.10
2022-12-13T08:39:07.986Z,21.43
2022-12-13T08:44:11.397Z,35.53
2022-12-13T08:49:14.879Z,23.42
2022-12-13T08:54:31.140Z,23.73
2022-12-13T08:59:35.039Z,24.45
2022-12-13T09:04:39.030Z,24.63
2022-12-13T09:09:43.708Z,22.57
2022-12-13T09:14:47.432Z,22.58
2022-12-13T09:19:50.777Z,20.88
2022-12-13T09:25:03.322Z,20.52
2022-12-13T09:30:08.102Z,22.75
2022-12-13T09:35:11.446Z,20.50
2022-12-13T09:40:25.392Z,23.90
2022-12-13T09:45:31.736Z,24.23
2022-12-13T09:50:39.842Z,22.58
2022-12-13T09:55:51.510Z,23.52
2022-12-13T10:00:56.584Z,21.05
2022-12-13T10:06:01.689Z,20.42
2022-12-13T10:11:06.454Z,22.40
2022-12-13T10:16:15.319Z,22.92
2022-12-13T10:21:30.513Z,16.95
2022-12-13T10:31:44.861Z,16.27
2022-12-13T10:36:48.433Z,14.70
2022-12-13T10:42:04.763Z,14.07
2022-12-13T10:47:17.846Z,14.23
2022-12-13T10:52:31.579Z,14.33
2022-12-13T10:57:36.704Z,14.82
2022-12-13T11:02:41.725Z,14.63
2022-12-13T11:07:45.213Z,14.02
2022-12-13T11:12:52.188Z,14.05
2022-12-13T11:18:00.096Z,16.07
2022-12-13T11:23:06.759Z,19.23
2022-12-13T11:28:31.918Z,17.30
2022-12-13T11:33:48.396Z,14.60
2022-12-13T11:39:07.067Z,15.52
2022-12-13T11:44:17.983Z,17.67
2022-12-13T11:49:33.601Z,17.42
2022-12-13T11:54:53.392Z,16.85
2022-12-13T12:00:02.942Z,19.53
2022-12-13T12:05:16.745Z,16.50
2022-12-13T12:10:30.550Z,17.65
2022-12-13T12:15:42.504Z,17.07
2022-12-13T12:21:04.961Z,16.93
2022-12-13T12:26:12.717Z,16.90
2022-12-13T12:31:26.437Z,15.27
2022-12-13T12:36:39.277Z,15.43
2022-12-13T12:41:54.819Z,15.88
2022-12-13T12:47:38.171Z,16.48
2022-12-13T12:52:50.872Z,14.82
2022-12-13T12:58:02.520Z,12.52
2022-12-13T13:03:22.566Z,11.03
2022-12-13T13:08:32.802Z,14.02
2022-12-13T13:13:46.557Z,11.35
2022-12-13T13:18:52.594Z,12.60
2022-12-13T13:24:08.283Z,23.63
2022-12-13T13:29:31.884Z,10.43
2022-12-13T13:34:38.939Z,10.90
2022-12-13T13:40:00.990Z,11.48
2022-12-13T13:45:23.919Z,10.07
2022-12-13T13:50:52.133Z,8.75
2022-12-13T13:56:08.457Z,10.00
2022-12-13T14:02:01.170Z,10.02
2022-12-13T14:07:52.525Z,9.35
2022-12-13T14:13:40.016Z,10.20
2022-12-13T14:19:26.245Z,13.53
2022-12-13T14:24:39.784Z,19.05
2022-12-13T14:29:48.480Z,21.48
2022-12-13T14:35:25.838Z,16.23
2022-12-13T14:40:30.337Z,17.40
2022-12-13T14:45:36.744Z,22.42
2022-12-13T14:50:42.579Z,51.00
2022-12-13T14:56:04.898Z,30.90
2022-12-13T15:01:23.916Z,25.80
2022-12-13T15:06:33.389Z,25.98
2022-12-13T15:11:38.616Z,25.90
2022-12-13T15:16:47.964Z,25.35
2022-12-13T15:22:01.840Z,27.60
2022-12-13T15:27:09.858Z,25.07
2022-12-13T15:32:16.362Z,22.73
2022-12-13T15:37:29.317Z,23.00
2022-12-13T15:42:38.062Z,22.13
2022-12-13T15:47:46.738Z,28.30
2022-12-13T15:53:01.484Z,25.65
2022-12-13T15:58:26.793Z,32.25
2022-12-13T16:03:33.492Z,30.90
2022-12-13T16:08:39.741Z,58.65
2022-12-13T16:13:47.352Z,52.90
2022-12-13T16:18:54.250Z,54.40
2022-12-13T16:23:57.678Z,49.00
2022-12-13T16:29:02.404Z,40.83
2022-12-13T16:34:06.933Z,31.35
2022-12-13T16:39:12.615Z,28.67
2022-12-13T16:44:23.941Z,28.73
2022-12-13T16:49:29.201Z,25.48
2022-12-13T16:54:32.627Z,21.37
2022-12-13T16:59:37.455Z,20.98
2022-12-13T17:04:41.698Z,20.77
2022-12-13T17:09:45.225Z,25.63
2022-12-13T17:14:53.190Z,27.20
2022-12-13T17:19:56.575Z,27.67
2022-12-13T17:25:00.033Z,26.88
2022-12-13T17:30:05.312Z,32.57
2022-12-13T17:35:13.359Z,30.08
2022-12-13T17:40:21.438Z,25.87
2022-12-13T17:45:26.174Z,23.00
2022-12-13T17:50:30.727Z,35.38
2022-12-13T17:55:34.252Z,27.67
2022-12-13T18:00:39.925Z,22.75
2022-12-13T18:05:43.275Z,22.13
2022-12-13T18:11:23.540Z,21.17
2022-12-13T18:16:20.654Z,21.17
2022-12-13T18:21:25.648Z,20.92
2022-12-13T18:26:28.939Z,30.80
2022-12-13T18:31:34.534Z,23.25
2022-12-13T18:36:39.568Z,28.08
2022-12-13T18:41:42.911Z,25.77
2022-12-13T18:46:49.044Z,21.67
2022-12-13T18:51:52.387Z,27.03
2022-12-13T18:56:55.774Z,30.17
2022-12-13T19:02:01.083Z,31.58
2022-12-13T19:07:04.839Z,28.80
2022-12-13T19:12:08.318Z,32.37
2022-12-13T19:17:13.049Z,32.03
2022-12-13T19:22:16.634Z,39.75
2022-12-13T19:27:19.966Z,51.40
2022-12-13T19:32:25.111Z,40.40
2022-12-13T19:37:28.463Z,33.70
2022-12-13T19:42:32.261Z,30.63
2022-12-13T19:47:37.043Z,29.55
2022-12-13T19:52:40.514Z,24.30
2022-12-13T19:57:43.874Z,25.40
2022-12-13T20:02:48.683Z,27.92
2022-12-13T20:07:53.967Z,31.65
2022-12-13T20:12:57.544Z,35.03
2022-12-13T20:18:02.683Z,26.70
2022-12-13T20:23:06.468Z,27.67
2022-12-13T20:28:15.901Z,26.58
2022-12-13T20:33:21.181Z,24.30
2022-12-13T20:38:24.531Z,25.20
2022-12-13T20:43:28.245Z,23.15
2022-12-13T20:48:36.763Z,24.40
2022-12-13T20:53:41.762Z,25.63
2022-12-13T20:58:45.735Z,22.07
2022-12-13T21:03:51.207Z,22.47
2022-12-13T21:08:56.835Z,23.38
2022-12-13T21:14:07.534Z,25.52
2022-12-13T21:19:19.457Z,22.83
2022-12-13T21:24:24.185Z,23.93
2022-12-13T21:29:27.745Z,23.17
2022-12-13T21:34:33.119Z,21.50
2022-12-13T21:39:36.586Z,20.70
2022-12-13T21:44:40.523Z,28.17
2022-12-13T21:49:48.720Z,26.67
2022-12-13T21:55:15.364Z,27.27
2022-12-13T22:00:17.537Z,22.75
2022-12-13T22:05:22.665Z,24.83
2022-12-13T22:10:25.972Z,23.65
2022-12-13T22:15:30.111Z,27.40
2022-12-13T22:20:34.904Z,23.27
2022-12-13T22:25:38.368Z,26.02
2022-12-13T22:30:41.737Z,24.63
2022-12-13T22:35:46.583Z,25.20
2022-12-13T22:40:50.037Z,20.60
2022-12-13T22:45:53.503Z,21.15
2022-12-13T22:51:03.184Z,20.47
2022-12-13T22:56:07.756Z,23.17
2022-12-13T23:01:12.989Z,24.13
2022-12-13T23:06:19.746Z,23.05
2022-12-13T23:11:53.202Z,22.58
2022-12-13T23:16:56.724Z,20.63
2022-12-13T23:22:01.492Z,21.83
2022-12-13T23:27:05.252Z,22.98
2022-12-13T23:32:08.749Z,21.10
2022-12-13T23:37:13.717Z,22.05
2022-12-13T23:42:17.094Z,25.47
2022-12-13T23:47:20.455Z,19.77
2022-12-13T23:52:25.216Z,20.17
2022-12-13T23:57:28.778Z,21.95
